Time;durP1;ratioP1;P1;durP2;ratioP2;P2;SDS_P1;SDS_P2;PMS_P1;PMS_P2;Temp;Humidity;BMP_temperature;BMP_pressure;BME280_temperature;BME280_humidity;BME280_pressure;Samples;Min_cycle;Max_cycle;Signal;HPM_P1;HPM_P2
2021/06/12 00:01:31;;;;;;;8.67;7.73;;;;;;;21.44;72.34;99587.31;5134844;27;20564;-75
2021/06/12 00:03:57;;;;;;;13.10;9.67;;;;;;;21.35;73.08;99597.31;5134973;27;20517;-75
2021/06/12 00:06:23;;;;;;;14.03;10.23;;;;;;;21.23;73.61;99591.25;5133479;27;20463;-74
2021/06/12 00:08:51;;;;;;;10.63;8.93;;;;;;;21.11;74.31;99594.38;5134743;27;20439;-74
2021/06/12 00:11:17;;;;;;;9.93;9.00;;;;;;;21.08;74.79;99597.44;5134336;27;20471;-74
2021/06/12 00:13:43;;;;;;;9.50;8.10;;;;;;;21.22;73.71;99594.13;5134941;27;20420;-74
2021/06/12 00:16:09;;;;;;;18.00;12.93;;;;;;;21.26;73.87;99595.53;5135306;27;20946;-73
2021/06/12 00:18:36;;;;;;;7.57;6.90;;;;;;;21.15;74.05;99604.84;5135219;27;20420;-74
2021/06/12 00:21:02;;;;;;;13.30;11.90;;;;;;;21.16;74.02;99598.34;5134767;27;20459;-74
2021/06/12 00:23:28;;;;;;;9.20;7.40;;;;;;;21.27;73.24;99594.50;5135347;27;20436;-74
2021/06/12 00:25:56;;;;;;;8.40;7.60;;;;;;;21.25;73.63;99599.28;5135364;27;20849;-75
2021/06/12 00:28:22;;;;;;;9.90;8.90;;;;;;;21.24;73.47;99587.47;5135040;27;20441;-74
2021/06/12 00:30:48;;;;;;;7.70;6.47;;;;;;;21.45;72.46;99595.38;5134725;27;20511;-74
2021/06/12 00:33:15;;;;;;;9.50;8.20;;;;;;;21.22;73.52;99594.13;5134998;27;20424;-74
2021/06/12 00:35:41;;;;;;;8.83;7.90;;;;;;;21.30;73.05;99596.94;5135195;27;20804;-74
2021/06/12 00:38:09;;;;;;;6.13;5.50;;;;;;;21.25;73.21;99596.53;5135296;27;20489;-74
2021/06/12 00:40:35;;;;;;;6.40;5.50;;;;;;;21.08;74.18;99600.16;5135341;27;20430;-76
2021/06/12 00:43:03;;;;;;;5.93;5.40;;;;;;;21.01;74.19;99600.78;5134737;27;20503;-73
2021/06/12 00:45:31;;;;;;;6.60;6.00;;;;;;;20.83;75.06;99599.91;5134622;27;20475;-74
2021/06/12 00:47:58;;;;;;;7.13;5.40;;;;;;;20.88;75.09;99597.56;5134951;27;20428;-75
2021/06/12 00:50:30;;;;;;;5.90;5.40;;;;;;;20.82;75.27;99585.34;5134663;27;20447;-75
2021/06/12 00:52:57;;;;;;;4.90;4.33;;;;;;;20.91;75.00;99599.13;5134869;27;20466;-74
2021/06/12 00:55:23;;;;;;;9.43;5.00;;;;;;;21.03;74.69;99604.22;5134502;27;20448;-74
2021/06/12 00:57:50;;;;;;;5.97;5.43;;;;;;;20.98;74.66;99598.38;5134749;27;20432;-74
2021/06/12 01:00:20;;;;;;;7.63;4.93;;;;;;;20.79;75.71;99609.44;5134573;27;20420;-75
2021/06/12 01:02:47;;;;;;;6.60;5.70;;;;;;;20.84;75.82;99615.31;5134637;27;20855;-74
2021/06/12 01:05:15;;;;;;;8.47;5.40;;;;;;;20.92;75.66;99604.44;5134335;27;20536;-73
2021/06/12 01:07:42;;;;;;;6.07;4.87;;;;;;;20.88;75.42;99603.03;5134657;27;20954;-74
2021/06/12 01:10:11;;;;;;;8.33;5.30;;;;;;;20.84;75.93;99601.63;5134398;27;20425;-74
2021/06/12 01:12:46;;;;;;;6.30;5.50;;;;;;;20.67;76.78;99595.13;5134344;27;20566;-74
2021/06/12 01:15:15;;;;;;;5.60;5.00;;;;;;;20.44;77.86;99594.63;5134057;27;20511;-74
2021/06/12 01:17:51;;;;;;;5.90;4.70;;;;;;;20.44;77.87;99589.16;5134170;27;20436;-74
2021/06/12 01:20:42;;;;;;;5.17;4.77;;;;;;;20.38;78.58;99579.72;5133943;27;20436;-74
2021/06/12 01:23:41;;;;;;;6.53;5.40;;;;;;;20.33;78.87;99590.25;5133874;27;20417;-74
2021/06/12 01:26:16;;;;;;;6.70;5.07;;;;;;;20.44;78.15;99589.16;5113430;28;20445;-74
2021/06/12 01:28:58;;;;;;;9.87;5.03;;;;;;;20.40;78.20;99593.25;5113685;28;20424;-74
2021/06/12 01:31:28;;;;;;;7.67;5.40;;;;;;;20.26;78.45;99585.53;5113364;28;20989;-74
2021/06/12 01:33:54;;;;;;;6.80;5.13;;;;;;;20.36;78.46;99591.81;5113389;28;20429;-74
2021/06/12 01:36:23;;;;;;;6.37;4.30;;;;;;;20.31;78.52;99585.97;5113104;28;20461;-72
2021/06/12 01:38:52;;;;;;;5.10;4.40;;;;;;;20.25;78.90;99586.56;5112977;28;20520;-74
2021/06/12 01:41:22;;;;;;;5.60;4.60;;;;;;;20.20;79.26;99592.47;5113529;28;20501;-75
2021/06/12 01:43:50;;;;;;;5.73;4.77;;;;;;;20.08;80.01;99591.81;5113542;28;20498;-74
2021/06/12 01:46:17;;;;;;;9.83;5.33;;;;;;;20.10;80.53;99597.13;5131028;27;20540;-74
2021/06/12 01:48:48;;;;;;;5.40;4.90;;;;;;;20.11;80.04;99588.78;5133753;27;21025;-75
2021/06/12 01:51:16;;;;;;;8.70;5.63;;;;;;;19.88;81.48;99588.28;5133251;27;20905;-75
2021/06/12 01:53:43;;;;;;;6.37;4.70;;;;;;;19.76;81.81;99590.34;5133165;27;20436;-74
2021/06/12 01:56:11;;;;;;;5.50;5.00;;;;;;;19.72;82.18;99594.38;5133454;27;20956;-73
2021/06/12 01:58:39;;;;;;;5.37;4.80;;;;;;;19.59;83.11;99586.47;5133566;27;20846;-74
2021/06/12 02:01:07;;;;;;;5.65;5.15;;;;;;;19.51;84.08;99585.47;5133606;27;20435;-74
2021/06/12 02:03:34;;;;;;;5.63;4.95;;;;;;;19.56;83.72;99585.91;5133106;27;20639;-74
2021/06/12 02:06:04;;;;;;;6.38;4.95;;;;;;;19.70;83.22;99590.94;5133557;27;20606;-74
2021/06/12 02:08:33;;;;;;;8.55;6.00;;;;;;;19.85;82.45;99590.44;5133126;27;20183;-73
2021/06/12 02:10:59;;;;;;;6.95;5.28;;;;;;;19.86;81.95;99586.72;5133496;27;20301;-74
2021/06/12 02:13:26;;;;;;;6.82;5.45;;;;;;;19.62;83.34;99581.72;5133115;27;20205;-74
2021/06/12 02:15:54;;;;;;;5.72;5.22;;;;;;;19.70;83.10;99585.47;5133238;27;20193;-75
2021/06/12 02:18:23;;;;;;;9.25;5.70;;;;;;;19.85;81.98;99590.44;5133097;27;20179;-75
2021/06/12 02:20:51;;;;;;;5.50;4.72;;;;;;;19.82;82.47;99582.56;5133285;27;20199;-73
2021/06/12 02:23:22;;;;;;;5.97;5.37;;;;;;;19.93;81.54;99587.84;5133109;27;20286;-74
2021/06/12 02:25:48;;;;;;;5.70;5.10;;;;;;;19.81;82.16;99581.72;5133347;27;21274;-74
2021/06/12 02:28:17;;;;;;;8.48;5.38;;;;;;;19.69;82.68;99578.28;5133108;27;20451;-74
2021/06/12 02:30:46;;;;;;;6.78;6.18;;;;;;;19.67;83.15;99574.81;5132929;27;20247;-74
2021/06/12 02:33:14;;;;;;;6.45;5.35;;;;;;;19.74;82.54;99573.25;5133256;28;20203;-74
2021/06/12 02:35:41;;;;;;;11.60;5.77;;;;;;;19.61;83.17;99571.81;5132880;27;20289;-74
2021/06/12 02:38:07;;;;;;;8.00;4.73;;;;;;;19.68;83.30;99582.00;5133438;28;20420;-74
2021/06/12 02:40:34;;;;;;;5.00;4.60;;;;;;;19.60;83.26;99579.13;5133148;28;20424;-74
2021/06/12 02:43:00;;;;;;;5.20;4.70;;;;;;;19.64;83.48;99579.72;5132711;28;20534;-74
2021/06/12 02:45:27;;;;;;;7.43;4.83;;;;;;;19.62;83.19;99577.13;5133030;28;20428;-74
2021/06/12 02:47:55;;;;;;;6.83;5.20;;;;;;;19.57;83.58;99576.69;5132708;28;20523;-74
2021/06/12 02:50:25;;;;;;;5.68;5.18;;;;;;;19.43;84.77;99579.91;5132503;28;20439;-73
2021/06/12 02:52:53;;;;;;;6.63;5.90;;;;;;;19.37;85.11;99582.19;5132650;27;20205;-74
2021/06/12 02:55:21;;;;;;;8.30;5.50;;;;;;;19.48;84.77;99588.50;5132801;27;20546;-74
2021/06/12 02:57:52;;;;;;;6.07;4.80;;;;;;;19.44;84.79;99593.38;5132928;28;20683;-74
2021/06/12 03:00:22;;;;;;;16.92;6.28;;;;;;;19.42;84.57;99594.53;5132836;28;20290;-73
2021/06/12 03:02:50;;;;;;;7.30;5.55;;;;;;;19.38;85.58;99597.59;5132425;28;20175;-73
2021/06/12 03:05:19;;;;;;;8.65;5.60;;;;;;;19.51;84.24;99602.72;5132305;28;20234;-73
2021/06/12 03:07:48;;;;;;;5.80;5.30;;;;;;;19.44;84.37;99601.59;5132834;27;20214;-74
2021/06/12 03:10:15;;;;;;;7.57;5.18;;;;;;;19.31;85.16;99618.28;5133062;28;20496;-74
2021/06/12 03:12:43;;;;;;;6.72;5.63;;;;;;;19.11;86.30;99619.28;5132653;28;20305;-74
2021/06/12 03:15:11;;;;;;;8.00;5.40;;;;;;;19.09;86.91;99624.88;5133156;28;20304;-74
2021/06/12 03:17:38;;;;;;;5.20;4.78;;;;;;;19.09;86.55;99624.03;5133127;28;20293;-74
2021/06/12 03:20:06;;;;;;;6.07;4.90;;;;;;;19.18;86.15;99623.16;5132855;28;20292;-74
2021/06/12 03:22:34;;;;;;;5.68;4.68;;;;;;;19.15;86.50;99617.97;5132553;28;20234;-74
2021/06/12 03:25:02;;;;;;;5.78;5.28;;;;;;;19.02;86.87;99617.44;5132317;28;20193;-74
2021/06/12 03:27:28;;;;;;;7.85;5.35;;;;;;;18.88;88.26;99615.94;5132913;27;20579;-74
2021/06/12 03:29:55;;;;;;;5.53;4.97;;;;;;;18.82;88.90;99603.75;5132429;28;20185;-74
2021/06/12 03:32:25;;;;;;;8.45;4.70;;;;;;;18.87;88.48;99615.09;5132576;28;20210;-73
2021/06/12 03:34:51;;;;;;;5.63;5.13;;;;;;;18.80;89.21;99624.84;5132571;28;20276;-74
2021/06/12 03:37:18;;;;;;;6.85;5.50;;;;;;;18.69;89.24;99625.81;5132161;28;20282;-74
2021/06/12 03:39:45;;;;;;;5.63;5.13;;;;;;;18.65;89.82;99626.22;5132113;28;20278;-73
2021/06/12 03:42:12;;;;;;;8.00;5.40;;;;;;;18.73;89.44;99624.53;5133750;27;20194;-74
2021/06/12 03:44:39;;;;;;;6.53;5.93;;;;;;;18.85;88.46;99625.28;5135706;27;20206;-75
2021/06/12 03:47:07;;;;;;;6.47;5.32;;;;;;;18.88;88.43;99633.22;5136556;27;20312;-73
2021/06/12 03:49:37;;;;;;;7.00;5.25;;;;;;;19.01;87.46;99630.19;5136107;27;20240;-75
2021/06/12 03:52:05;;;;;;;6.95;5.60;;;;;;;18.83;88.08;99635.47;5135699;27;20332;-72
2021/06/12 03:54:31;;;;;;;7.47;4.85;;;;;;;18.95;87.72;99628.91;5135952;27;20183;-74
2021/06/12 03:56:58;;;;;;;6.88;5.35;;;;;;;18.98;87.45;99632.34;5136070;27;20192;-74
2021/06/12 03:59:25;;;;;;;6.25;5.13;;;;;;;19.14;86.28;99633.50;5135838;27;20362;-73
2021/06/12 04:01:53;;;;;;;8.88;5.30;;;;;;;19.27;85.52;99638.69;5136083;27;20192;-73
2021/06/12 04:04:21;;;;;;;6.40;5.80;;;;;;;19.28;85.20;99642.25;5135362;27;20617;-73
2021/06/12 04:06:50;;;;;;;7.53;5.50;;;;;;;19.37;84.47;99635.94;5135259;27;20199;-73
2021/06/12 04:09:16;;;;;;;6.10;5.53;;;;;;;19.26;84.97;99638.81;5135907;27;20606;-74
2021/06/12 04:11:43;;;;;;;6.22;5.63;;;;;;;19.32;84.80;99649.16;5135439;27;20292;-74
2021/06/12 04:14:09;;;;;;;6.57;5.97;;;;;;;19.27;84.68;99643.28;5135546;27;20199;-73
2021/06/12 04:16:35;;;;;;;8.47;6.50;;;;;;;19.51;83.47;99649.13;5135650;27;20218;-73
2021/06/12 04:19:02;;;;;;;9.70;6.27;;;;;;;19.56;82.83;99648.72;5135626;27;20427;-74
2021/06/12 04:21:28;;;;;;;7.50;6.25;;;;;;;19.57;82.53;99634.06;5135674;27;21016;-74
2021/06/12 04:23:56;;;;;;;7.40;6.47;;;;;;;19.35;83.58;99638.81;5134784;27;20197;-74
2021/06/12 04:26:22;;;;;;;8.57;6.90;;;;;;;19.51;83.17;99635.47;5135218;27;20538;-73
2021/06/12 04:28:48;;;;;;;7.25;6.57;;;;;;;19.55;82.76;99633.34;5135131;27;20479;-74
2021/06/12 04:31:14;;;;;;;7.93;7.22;;;;;;;19.58;82.37;99625.72;5134661;27;20189;-74
2021/06/12 04:33:40;;;;;;;7.45;6.70;;;;;;;19.52;82.08;99622.72;5135355;27;20665;-73
2021/06/12 04:36:07;;;;;;;6.97;6.32;;;;;;;19.53;82.30;99625.28;5135037;27;20277;-74
2021/06/12 04:38:33;;;;;;;7.33;6.63;;;;;;;19.65;82.03;99634.19;5134779;27;20234;-74
2021/06/12 04:41:00;;;;;;;6.77;6.17;;;;;;;19.67;81.18;99640.38;5135232;27;20435;-74
2021/06/12 04:43:26;;;;;;;7.13;6.43;;;;;;;19.48;82.02;99643.97;5135343;27;20918;-73
2021/06/12 04:45:52;;;;;;;8.52;6.68;;;;;;;19.43;83.03;99649.03;5135157;27;20196;-75
2021/06/12 04:48:18;;;;;;;7.65;6.65;;;;;;;19.48;82.86;99652.16;5134789;27;20198;-75
2021/06/12 04:50:45;;;;;;;7.55;6.45;;;;;;;19.77;81.21;99646.69;5135294;27;20530;-75
2021/06/12 04:53:11;;;;;;;8.30;6.73;;;;;;;19.86;80.44;99657.75;5133678;27;20311;-73
2021/06/12 04:55:38;;;;;;;8.18;6.95;;;;;;;19.88;80.43;99662.06;5135135;27;20514;-74
2021/06/12 04:58:06;;;;;;;10.30;7.10;;;;;;;19.89;80.28;99662.91;5135263;27;20195;-74
2021/06/12 05:00:33;;;;;;;6.73;5.97;;;;;;;20.20;78.93;99672.59;5134499;27;20436;-74
2021/06/12 05:02:59;;;;;;;8.27;6.40;;;;;;;20.34;78.44;99675.88;5134631;27;20471;-75
2021/06/12 05:05:25;;;;;;;7.93;6.20;;;;;;;20.18;78.63;99677.38;5134602;27;20640;-73
2021/06/12 05:07:51;;;;;;;5.97;5.23;;;;;;;20.32;77.99;99678.75;5134863;27;20523;-74
2021/06/12 05:10:17;;;;;;;7.43;5.10;;;;;;;20.45;77.43;99681.16;5134640;27;20450;-74
2021/06/12 05:12:43;;;;;;;6.87;4.87;;;;;;;20.24;78.55;99675.03;5134307;27;20467;-74
2021/06/12 05:15:12;;;;;;;5.00;4.47;;;;;;;20.00;79.72;99676.41;5134089;27;20448;-74
2021/06/12 05:17:40;;;;;;;7.00;5.10;;;;;;;20.16;78.94;99676.66;5134809;27;20527;-74
2021/06/12 05:20:08;;;;;;;4.20;3.80;;;;;;;20.33;77.83;99674.16;5134470;27;20448;-73
2021/06/12 05:22:35;;;;;;;5.40;4.50;;;;;;;20.16;78.37;99689.47;5133865;27;20417;-74
2021/06/12 05:25:01;;;;;;;6.43;4.60;;;;;;;20.26;77.77;99687.56;5134258;27;20926;-74
2021/06/12 05:27:28;;;;;;;5.45;4.30;;;;;;;19.97;79.18;99680.31;5134166;27;21296;-74
2021/06/12 05:29:54;;;;;;;4.43;4.03;;;;;;;20.03;79.18;99680.72;5133925;27;20251;-74
2021/06/12 05:32:21;;;;;;;5.22;4.32;;;;;;;20.17;78.41;99682.97;5134111;27;21010;-74
2021/06/12 05:34:47;;;;;;;7.50;4.13;;;;;;;20.20;78.31;99680.81;5133586;27;20226;-74
2021/06/12 05:37:14;;;;;;;6.00;4.50;;;;;;;20.19;78.51;99683.69;5134059;27;20611;-74
2021/06/12 05:39:40;;;;;;;10.00;4.73;;;;;;;20.21;78.08;99678.94;5133717;27;20412;-73
2021/06/12 05:42:07;;;;;;;7.20;4.80;;;;;;;20.41;77.24;99690.66;5133535;27;20472;-75
2021/06/12 05:44:34;;;;;;;5.20;4.70;;;;;;;20.70;75.53;99687.81;5134002;27;20759;-73
2021/06/12 05:47:00;;;;;;;8.05;5.40;;;;;;;20.47;76.80;99687.34;5133248;27;20430;-74
2021/06/12 05:49:27;;;;;;;6.73;5.13;;;;;;;20.67;75.79;99685.41;5133508;27;20202;-73
2021/06/12 05:51:53;;;;;;;9.13;5.10;;;;;;;20.70;75.22;99682.34;5133689;27;20467;-76
2021/06/12 05:54:20;;;;;;;7.10;4.90;;;;;;;20.83;74.74;99684.75;5133688;27;20446;-73
2021/06/12 05:56:47;;;;;;;8.40;5.10;;;;;;;20.79;74.96;99673.22;5133710;27;20870;-74
2021/06/12 05:59:13;;;;;;;8.63;6.07;;;;;;;21.03;73.74;99672.66;5133442;27;20870;-75
2021/06/12 06:01:39;;;;;;;6.33;4.57;;;;;;;21.12;73.36;99668.13;5133351;27;20421;-74
2021/06/12 06:04:05;;;;;;;6.80;4.90;;;;;;;21.18;72.96;99669.38;5132614;27;20562;-74
2021/06/12 06:06:33;;;;;;;6.77;5.30;;;;;;;21.03;73.25;99672.66;5133852;27;20888;-75
2021/06/12 06:08:59;;;;;;;7.53;6.17;;;;;;;20.82;74.31;99686.59;5133513;27;20950;-74
2021/06/12 06:11:25;;;;;;;8.73;6.30;;;;;;;20.79;75.04;99684.19;5133202;27;20468;-75
2021/06/12 06:13:51;;;;;;;10.10;6.17;;;;;;;20.93;74.37;99680.06;5133385;27;20523;-72
2021/06/12 06:16:17;;;;;;;8.10;5.37;;;;;;;21.00;74.52;99685.78;5133599;27;20470;-75
2021/06/12 06:18:43;;;;;;;6.33;5.63;;;;;;;21.25;73.59;99681.41;5133146;27;20527;-74
2021/06/12 06:21:10;;;;;;;8.73;6.10;;;;;;;21.36;72.85;99681.19;5133599;27;20420;-73
2021/06/12 06:23:38;;;;;;;9.90;5.53;;;;;;;21.56;71.96;99684.66;5132877;27;20432;-75
2021/06/12 06:26:04;;;;;;;5.57;4.93;;;;;;;21.76;70.88;99693.56;5133312;27;20585;-75
2021/06/12 06:28:30;;;;;;;8.97;5.47;;;;;;;21.82;71.09;99687.47;5133574;27;20447;-75
2021/06/12 06:30:56;;;;;;;7.53;5.00;;;;;;;22.13;69.88;99692.44;5133047;28;20507;-76
2021/06/12 06:33:24;;;;;;;6.80;5.50;;;;;;;22.03;69.59;99702.69;5133276;28;21056;-74
2021/06/12 06:35:51;;;;;;;9.53;4.90;;;;;;;22.08;69.75;99697.56;5133361;28;20916;-74
2021/06/12 06:38:17;;;;;;;5.67;5.07;;;;;;;22.18;69.45;99700.19;5133009;28;20444;-73
2021/06/12 06:40:44;;;;;;;6.17;5.57;;;;;;;22.26;69.30;99703.03;5133201;28;20511;-74
2021/06/12 06:43:12;;;;;;;6.67;6.07;;;;;;;22.40;68.72;99707.06;5132806;28;20474;-74
2021/06/12 06:45:38;;;;;;;9.00;6.40;;;;;;;22.26;69.53;99714.00;5133017;28;20766;-73
2021/06/12 06:48:07;;;;;;;8.87;6.57;;;;;;;22.65;67.72;99717.13;5132646;28;20524;-73
2021/06/12 06:50:34;;;;;;;6.63;5.93;;;;;;;22.62;68.12;99714.72;5132443;28;20530;-74
2021/06/12 06:53:00;;;;;;;9.33;6.00;;;;;;;22.54;68.53;99717.41;5132280;27;20484;-74
2021/06/12 06:55:26;;;;;;;10.73;5.90;;;;;;;22.43;68.87;99723.19;5133211;27;20969;-73
2021/06/12 06:57:54;;;;;;;8.63;5.50;;;;;;;22.87;67.49;99715.69;5133092;27;20913;-75
2021/06/12 07:00:22;;;;;;;6.13;5.53;;;;;;;23.08;66.71;99723.50;5132583;27;20420;-74
2021/06/12 07:02:49;;;;;;;9.23;5.90;;;;;;;23.08;66.28;99726.25;5133024;28;20429;-75
2021/06/12 07:05:15;;;;;;;7.10;6.03;;;;;;;23.05;66.93;99723.00;5132522;27;20475;-75
2021/06/12 07:07:41;;;;;;;7.33;6.73;;;;;;;23.01;67.16;99719.72;5132337;27;21231;-74
2021/06/12 07:10:08;;;;;;;8.13;7.40;;;;;;;22.94;67.58;99729.63;5132953;27;20421;-74
2021/06/12 07:12:34;;;;;;;9.90;7.40;;;;;;;23.23;65.80;99722.88;5132238;28;20570;-74
2021/06/12 07:15:01;;;;;;;10.73;7.70;;;;;;;22.93;66.56;99729.78;5132726;27;20913;-73
2021/06/12 07:17:28;;;;;;;8.23;7.30;;;;;;;23.13;66.31;99727.66;5136524;27;20428;-73
2021/06/12 07:19:54;;;;;;;8.50;6.90;;;;;;;23.39;65.66;99731.16;5136163;27;20473;-73
2021/06/12 07:22:20;;;;;;;9.30;6.50;;;;;;;23.43;64.75;99723.44;5136896;27;20469;-74
2021/06/12 07:24:46;;;;;;;6.87;6.23;;;;;;;23.34;65.10;99713.44;5136699;27;20427;-73
2021/06/12 07:27:13;;;;;;;6.47;5.70;;;;;;;23.44;65.22;99704.00;5136551;27;20450;-74
2021/06/12 07:29:39;;;;;;;5.07;4.40;;;;;;;23.68;64.31;99705.09;5136377;27;20433;-73
2021/06/12 07:32:08;;;;;;;5.73;5.23;;;;;;;23.79;63.95;99702.03;5136096;27;20479;-74
2021/06/12 07:34:34;;;;;;;5.67;5.00;;;;;;;23.89;63.17;99697.19;5136593;27;20427;-74
2021/06/12 07:37:00;;;;;;;5.77;5.27;;;;;;;23.67;62.94;99715.19;5136661;27;20754;-73
2021/06/12 07:39:27;;;;;;;5.37;4.87;;;;;;;23.78;62.48;99711.28;5135845;27;20526;-74
2021/06/12 07:41:53;;;;;;;4.90;4.30;;;;;;;24.25;60.46;99713.31;5135774;27;20424;-74
2021/06/12 07:44:20;;;;;;;8.53;4.63;;;;;;;24.25;59.51;99705.06;5136393;27;20805;-74
2021/06/12 07:46:46;;;;;;;3.80;3.50;;;;;;;24.19;59.17;99714.00;5135874;27;20420;-74
2021/06/12 07:49:14;;;;;;;3.43;3.13;;;;;;;24.12;58.18;99715.75;5136044;27;20443;-74
2021/06/12 07:51:44;;;;;;;2.83;2.53;;;;;;;24.14;56.42;99709.03;5136192;27;20425;-74
2021/06/12 07:54:10;;;;;;;4.60;2.27;;;;;;;24.22;54.77;99715.53;5136011;27;20435;-74
2021/06/12 07:56:36;;;;;;;2.27;1.80;;;;;;;24.34;52.49;99701.25;5136135;27;20783;-74
2021/06/12 07:59:03;;;;;;;1.83;1.60;;;;;;;24.52;50.93;99706.56;5135961;27;20476;-74
2021/06/12 08:01:33;;;;;;;1.57;1.47;;;;;;;24.30;50.38;99697.13;5135700;27;20825;-75
2021/06/12 08:03:59;;;;;;;1.67;1.57;;;;;;;24.48;49.55;99701.59;5135841;27;20821;-75
2021/06/12 08:06:27;;;;;;;1.37;1.27;;;;;;;24.23;50.51;99693.38;5135491;27;20431;-73
2021/06/12 08:08:53;;;;;;;1.50;1.40;;;;;;;24.30;50.54;99699.88;5135675;27;20845;-74
2021/06/12 08:11:19;;;;;;;1.63;1.53;;;;;;;24.80;50.11;99686.00;5135946;27;21021;-73
2021/06/12 08:13:45;;;;;;;2.03;1.53;;;;;;;24.69;51.17;99696.38;5135272;27;20565;-74
2021/06/12 08:16:11;;;;;;;1.80;1.70;;;;;;;25.08;50.50;99697.41;5135106;27;20507;-74
2021/06/12 08:18:37;;;;;;;2.23;1.60;;;;;;;25.08;50.17;99686.38;5135835;27;20798;-73
2021/06/12 08:21:04;;;;;;;1.40;1.20;;;;;;;25.32;49.38;99693.66;5135768;27;21162;-74
2021/06/12 08:23:32;;;;;;;1.60;1.50;;;;;;;24.55;51.61;99691.59;5135604;27;20585;-74
2021/06/12 08:25:58;;;;;;;2.30;2.10;;;;;;;24.64;51.18;99693.28;5135449;27;20457;-75
2021/06/12 08:28:24;;;;;;;4.30;3.63;;;;;;;25.13;50.64;99709.59;5134721;27;21267;-73
2021/06/12 08:30:50;;;;;;;7.93;4.97;;;;;;;25.32;50.75;99702.78;5135659;27;20497;-74
2021/06/12 08:33:16;;;;;;;3.87;3.37;;;;;;;25.52;50.38;99700.41;5135088;27;20518;-73
2021/06/12 08:35:43;;;;;;;2.03;1.60;;;;;;;25.21;49.23;99700.44;5134690;27;20508;-74
2021/06/12 08:38:09;;;;;;;2.57;2.20;;;;;;;25.30;49.38;99695.72;5134988;27;20571;-73
2021/06/12 08:40:36;;;;;;;2.20;2.00;;;;;;;25.10;50.62;99701.69;5135322;27;20459;-73
2021/06/12 08:43:05;;;;;;;2.33;2.00;;;;;;;25.07;50.71;99693.78;5135239;27;20444;-73
2021/06/12 08:45:32;;;;;;;2.07;1.87;;;;;;;25.13;49.96;99697.72;5134516;27;20471;-73
2021/06/12 08:48:00;;;;;;;2.70;2.07;;;;;;;24.73;51.31;99694.97;5134563;27;20444;-73
2021/06/12 08:50:28;;;;;;;2.40;2.07;;;;;;;25.01;50.37;99700.03;5134597;27;20420;-73
2021/06/12 08:52:56;;;;;;;2.27;2.00;;;;;;;25.21;49.27;99694.06;5134653;27;20464;-73
2021/06/12 08:55:23;;;;;;;1.73;1.57;;;;;;;25.28;49.35;99703.31;5134680;27;20858;-73
2021/06/12 08:57:51;;;;;;;1.70;1.60;;;;;;;25.54;48.15;99703.00;5134269;27;20559;-73
2021/06/12 09:00:19;;;;;;;2.30;2.03;;;;;;;25.61;48.42;99697.59;5134705;27;20428;-75
2021/06/12 09:03:16;;;;;;;2.03;1.93;;;;;;;26.39;46.62;99696.41;5134471;27;20822;-74
2021/06/12 09:05:45;;;;;;;1.80;1.70;;;;;;;26.25;46.97;99694.47;5070703;28;20557;-74
2021/06/12 09:08:13;;;;;;;2.50;1.80;;;;;;;26.10;47.24;99698.06;5121140;27;20476;-74
2021/06/12 09:10:55;;;;;;;2.20;1.93;;;;;;;25.75;47.81;99697.63;5134112;27;20417;-73
2021/06/12 09:13:43;;;;;;;2.80;1.90;;;;;;;25.43;49.24;99715.28;5133787;27;20479;-74
2021/06/12 09:16:25;;;;;;;3.70;1.90;;;;;;;25.73;48.18;99715.41;5133917;27;20468;-74
2021/06/12 09:18:53;;;;;;;3.10;1.80;;;;;;;25.96;47.54;99715.41;5133884;27;20439;-73
2021/06/12 09:21:27;;;;;;;3.57;2.20;;;;;;;25.79;48.02;99709.16;5134279;27;20438;-74
2021/06/12 09:23:53;;;;;;;2.63;2.17;;;;;;;25.90;47.83;99722.53;5134294;27;20906;-74
2021/06/12 09:26:22;;;;;;;3.20;2.30;;;;;;;25.77;48.31;99723.13;5133684;27;20440;-73
2021/06/12 09:28:52;;;;;;;4.10;2.57;;;;;;;25.96;47.79;99719.06;5133641;27;20431;-73
2021/06/12 09:31:26;;;;;;;1.87;1.77;;;;;;;26.03;46.97;99727.44;5134018;27;20918;-73
2021/06/12 09:33:55;;;;;;;3.60;1.87;;;;;;;25.86;47.81;99721.16;5133874;27;20813;-73
2021/06/12 09:36:32;;;;;;;2.00;1.70;;;;;;;25.89;47.97;99723.59;5133580;27;20433;-73
2021/06/12 09:39:13;;;;;;;4.13;2.97;;;;;;;25.96;46.98;99727.34;5133206;27;20420;-73
2021/06/12 09:41:42;;;;;;;2.67;1.90;;;;;;;25.83;47.78;99724.31;5133422;27;20420;-74
2021/06/12 09:44:09;;;;;;;2.53;2.03;;;;;;;25.93;47.57;99718.56;5133366;27;20429;-73
2021/06/12 09:46:38;;;;;;;4.17;3.00;;;;;;;26.31;46.14;99716.63;5133439;27;20424;-74
2021/06/12 09:49:06;;;;;;;5.17;3.57;;;;;;;26.28;45.28;99722.53;5132861;27;20577;-74
2021/06/12 09:51:33;;;;;;;3.27;1.90;;;;;;;26.34;44.67;99724.53;5133299;27;20464;-74
2021/06/12 09:54:02;;;;;;;2.23;1.97;;;;;;;26.52;43.63;99724.16;5133162;27;20505;-73
2021/06/12 09:56:29;;;;;;;2.13;1.50;;;;;;;25.91;45.51;99723.41;5133544;27;20901;-75
2021/06/12 09:58:57;;;;;;;5.43;2.00;;;;;;;25.84;45.31;99726.00;5132877;27;20444;-74
2021/06/12 10:01:30;;;;;;;1.43;1.23;;;;;;;25.54;45.72;99734.16;5133227;27;20488;-73
2021/06/12 10:04:10;;;;;;;3.60;1.70;;;;;;;25.28;46.34;99736.38;5133391;27;20900;-73
2021/06/12 10:06:37;;;;;;;1.60;1.40;;;;;;;25.68;45.76;99735.25;5132745;27;20427;-74
2021/06/12 10:09:05;;;;;;;3.53;1.57;;;;;;;25.65;45.83;99732.88;5133184;27;20921;-73
2021/06/12 10:11:33;;;;;;;2.63;2.30;;;;;;;25.80;45.39;99725.53;5133292;27;20522;-72
2021/06/12 10:13:59;;;;;;;2.67;1.87;;;;;;;25.86;45.73;99732.19;5132831;27;20483;-73
2021/06/12 10:16:31;;;;;;;2.60;1.67;;;;;;;25.86;45.76;99734.09;5133029;27;20897;-73
2021/06/12 10:18:59;;;;;;;5.50;3.33;;;;;;;25.87;45.97;99722.94;5133523;27;20469;-74
2021/06/12 10:21:25;;;;;;;2.87;1.50;;;;;;;25.79;45.91;99717.44;5132674;27;20425;-73
2021/06/12 10:23:52;;;;;;;2.93;1.30;;;;;;;26.05;45.49;99721.72;5133119;27;20490;-73
2021/06/12 10:26:20;;;;;;;1.23;0.90;;;;;;;25.92;45.70;99720.47;5133054;27;20456;-74
2021/06/12 10:28:46;;;;;;;5.90;1.50;;;;;;;26.32;45.14;99721.13;5132152;27;20477;-73
2021/06/12 10:31:15;;;;;;;2.50;1.50;;;;;;;26.37;45.23;99715.91;5130795;28;20526;-73
2021/06/12 10:33:47;;;;;;;4.03;2.60;;;;;;;26.24;45.64;99715.69;5132859;28;20988;-72
2021/06/12 10:36:15;;;;;;;2.47;1.87;;;;;;;26.05;46.42;99717.09;5131654;28;20432;-72
2021/06/12 10:38:42;;;;;;;4.20;2.97;;;;;;;26.05;46.82;99721.72;5132094;27;20432;-72
2021/06/12 10:41:16;;;;;;;3.53;1.80;;;;;;;25.82;47.07;99716.22;5131759;27;20453;-73
2021/06/12 10:43:43;;;;;;;1.70;1.37;;;;;;;25.59;47.96;99730.84;5132447;27;20509;-72
2021/06/12 10:46:15;;;;;;;4.70;2.33;;;;;;;25.94;47.56;99723.03;5132020;27;20478;-72
2021/06/12 10:48:45;;;;;;;1.93;1.60;;;;;;;25.68;48.19;99721.47;5132401;27;20428;-73
2021/06/12 10:51:13;;;;;;;1.60;1.50;;;;;;;26.00;46.95;99702.97;5134193;27;20428;-73
2021/06/12 10:53:42;;;;;;;1.93;1.10;;;;;;;26.17;45.75;99728.53;5136957;27;21387;-73
2021/06/12 10:56:10;;;;;;;1.90;1.00;;;;;;;25.98;45.90;99714.22;5136748;27;20431;-72
2021/06/12 10:58:45;;;;;;;1.57;1.20;;;;;;;26.02;45.64;99722.09;5136024;27;20521;-73
2021/06/12 11:01:23;;;;;;;1.17;0.70;;;;;;;26.15;45.16;99714.06;5136370;27;20909;-73
2021/06/12 11:04:06;;;;;;;2.30;1.10;;;;;;;26.14;44.43;99710.44;5136544;27;20464;-73
2021/06/12 11:06:46;;;;;;;3.23;1.20;;;;;;;26.40;44.33;99717.41;5135669;27;20527;-73
2021/06/12 11:09:31;;;;;;;1.20;0.93;;;;;;;26.19;43.74;99719.00;5136227;27;20431;-73
2021/06/12 11:11:58;;;;;;;1.20;0.93;;;;;;;26.03;44.46;99715.53;5136235;27;20455;-74
2021/06/12 11:14:33;;;;;;;1.73;1.50;;;;;;;26.51;43.75;99716.09;5136292;27;20503;-74
2021/06/12 11:17:18;;;;;;;2.80;1.27;;;;;;;26.24;43.50;99712.94;5135952;27;20430;-74
2021/06/12 11:19:49;;;;;;;1.70;1.10;;;;;;;26.63;42.72;99720.13;5136171;27;20495;-73
2021/06/12 11:22:33;;;;;;;1.83;1.00;;;;;;;26.38;43.45;99728.63;5135927;27;20420;-73
2021/06/12 11:25:02;;;;;;;1.30;1.00;;;;;;;25.97;44.16;99723.50;5135965;27;20448;-73
2021/06/12 11:27:32;;;;;;;2.07;0.97;;;;;;;26.13;43.92;99719.75;5136027;27;20475;-73
2021/06/12 11:30:20;;;;;;;2.70;0.90;;;;;;;25.96;44.23;99724.56;5129970;27;20429;-73
2021/06/12 11:32:48;;;;;;;2.97;1.10;;;;;;;26.25;43.21;99722.06;5114870;28;20533;-74
2021/06/12 11:35:40;;;;;;;1.17;0.80;;;;;;;26.49;42.68;99719.03;5133062;27;20519;-75
2021/06/12 11:38:09;;;;;;;1.87;0.90;;;;;;;26.54;42.92;99726.75;5135859;27;20426;-73
2021/06/12 11:40:36;;;;;;;2.00;1.00;;;;;;;26.86;41.96;99724.69;5135663;27;20439;-75